createdAt,value
2023-03-19T00:01:40.305Z,98053.28
2023-03-19T00:04:42.088Z,98049.94
2023-03-19T00:07:43.655Z,98050.91
2023-03-19T00:10:47.060Z,98053.25
2023-03-19T00:13:48.721Z,98055.13
2023-03-19T00:16:50.818Z,98057.16
2023-03-19T00:19:52.594Z,98057.66
2023-03-19T00:22:54.245Z,98054.09
2023-03-19T00:25:57.231Z,98049.53
2023-03-19T00:28:59.476Z,98059.31
2023-03-19T00:32:01.343Z,98052.81
2023-03-19T00:35:03.846Z,98054.22
2023-03-19T00:38:08.801Z,98062.84
2023-03-19T00:41:13.799Z,98059.19
2023-03-19T00:44:15.862Z,98061.84
2023-03-19T00:47:17.840Z,98059.78
2023-03-19T00:50:19.494Z,98055.50
2023-03-19T00:53:21.557Z,98053.91
2023-03-19T00:56:24.536Z,98061.44
2023-03-19T00:59:26.932Z,98059.06
2023-03-19T01:02:29.131Z,98060.88
2023-03-19T01:05:31.313Z,98056.78
2023-03-19T01:08:33.205Z,98053.72
2023-03-19T01:11:36.712Z,98057.97
2023-03-19T01:14:38.563Z,98064.31
2023-03-19T01:17:40.366Z,98054.25
2023-03-19T01:20:42.975Z,98064.41
2023-03-19T01:23:44.809Z,98062.25
2023-03-19T01:26:47.786Z,98063.25
2023-03-19T01:30:05.612Z,98066.78
2023-03-19T01:33:39.443Z,98058.97
2023-03-19T01:37:04.509Z,98057.56
2023-03-19T01:40:09.404Z,98055.59
2023-03-19T01:43:14.395Z,98054.31
2023-03-19T01:46:48.527Z,98060.56
2023-03-19T01:50:21.025Z,98061.84
2023-03-19T01:53:27.828Z,98061.84
2023-03-19T01:56:56.249Z,98054.38
2023-03-19T02:00:07.606Z,98053.59
2023-03-19T02:03:19.004Z,98058.75
2023-03-19T02:06:46.931Z,98060.41
2023-03-19T02:09:48.808Z,98055.25
2023-03-19T02:12:51.418Z,98058.75
2023-03-19T02:15:54.771Z,98051.31
2023-03-19T02:18:56.687Z,98058.41
2023-03-19T02:21:59.527Z,98056.81
2023-03-19T02:25:02.772Z,98064.94
2023-03-19T02:28:09.392Z,98060.56
2023-03-19T02:31:12.169Z,98057.97
2023-03-19T02:34:32.220Z,98053.78
2023-03-19T02:37:33.987Z,98057.81
2023-03-19T02:40:37.303Z,98054.59
2023-03-19T02:43:41.360Z,98053.06
2023-03-19T02:46:42.926Z,98056.44
2023-03-19T02:49:44.775Z,98054.53
2023-03-19T02:52:46.452Z,98057.81
2023-03-19T02:55:49.537Z,98059.06
2023-03-19T02:58:53.057Z,98052.00
2023-03-19T03:01:56.251Z,98052.88
2023-03-19T03:04:58.048Z,98049.06
2023-03-19T03:08:00.569Z,98059.41
2023-03-19T03:11:02.677Z,98051.28
2023-03-19T03:14:05.940Z,98055.41
2023-03-19T03:17:08.690Z,98062.50
2023-03-19T03:20:11.667Z,98056.19
2023-03-19T03:23:13.577Z,98054.47
2023-03-19T03:26:15.441Z,98055.41
2023-03-19T03:29:26.295Z,98061.78
2023-03-19T03:32:28.448Z,98062.19
2023-03-19T03:35:30.953Z,98061.34
2023-03-19T03:38:32.966Z,98069.47
2023-03-19T03:41:34.617Z,98065.16
2023-03-19T03:44:39.272Z,98068.09
2023-03-19T03:47:41.062Z,98059.00
2023-03-19T03:50:43.609Z,98068.97
2023-03-19T03:53:49.894Z,98067.53
2023-03-19T03:56:51.738Z,98063.72
2023-03-19T03:59:54.878Z,98072.50
2023-03-19T04:02:56.860Z,98068.91
2023-03-19T04:05:58.392Z,98065.53
2023-03-19T04:09:00.261Z,98069.75
2023-03-19T04:12:02.528Z,98072.72
2023-03-19T04:15:06.033Z,98077.91
2023-03-19T04:18:07.872Z,98069.88
2023-03-19T04:21:09.580Z,98074.94
2023-03-19T04:24:11.800Z,98069.63
2023-03-19T04:27:13.975Z,98068.69
2023-03-19T04:30:17.551Z,98070.41
2023-03-19T04:33:19.446Z,98063.53
2023-03-19T04:36:21.203Z,98064.41
2023-03-19T04:39:23.159Z,98063.53
2023-03-19T04:42:26.324Z,98063.59
2023-03-19T04:45:46.479Z,98073.50
2023-03-19T04:48:48.205Z,98064.91
2023-03-19T04:51:50.190Z,98061.38
2023-03-19T04:54:52.984Z,98065.69
2023-03-19T04:57:55.190Z,98065.75
2023-03-19T05:01:03.886Z,98065.69
2023-03-19T05:04:26.690Z,98079.78
2023-03-19T05:07:34.569Z,98075.03
2023-03-19T05:10:38.683Z,98082.16
2023-03-19T05:13:40.967Z,98076.06
2023-03-19T05:16:45.867Z,98080.44
2023-03-19T05:19:48.721Z,98082.84
2023-03-19T05:22:52.060Z,98087.31
2023-03-19T05:25:55.025Z,98084.31
2023-03-19T05:29:14.746Z,98083.91
2023-03-19T05:32:40.981Z,98086.22
2023-03-19T05:35:48.884Z,98085.06
2023-03-19T05:38:59.634Z,98089.97
2023-03-19T05:42:08.273Z,98089.47
2023-03-19T05:45:11.220Z,98096.81
2023-03-19T05:48:22.277Z,98099.00
2023-03-19T05:51:24.215Z,98099.22
2023-03-19T05:54:26.340Z,98101.88
2023-03-19T05:57:40.725Z,98108.22
2023-03-19T06:00:51.967Z,98103.91
2023-03-19T06:03:55.143Z,98103.91
2023-03-19T06:06:56.820Z,98113.69
2023-03-19T06:09:58.739Z,98114.00
2023-03-19T06:13:00.515Z,98114.13
2023-03-19T06:16:14.591Z,98118.72
2023-03-19T06:19:24.220Z,98104.72
2023-03-19T06:22:26.014Z,98114.28
2023-03-19T06:25:27.948Z,98114.00
2023-03-19T06:28:29.727Z,98120.88
2023-03-19T06:31:31.699Z,98124.47
2023-03-19T06:34:38.760Z,98120.03
2023-03-19T06:37:40.430Z,98120.88
2023-03-19T06:40:42.147Z,98131.53
2023-03-19T06:43:44.078Z,98131.59
2023-03-19T06:46:46.238Z,98138.13
2023-03-19T06:49:49.291Z,98139.06
2023-03-19T06:52:51.517Z,98143.59
2023-03-19T06:55:53.172Z,98136.47
2023-03-19T06:58:54.864Z,98143.69
2023-03-19T07:01:56.823Z,98143.84
2023-03-19T07:04:59.883Z,98148.16
2023-03-19T07:08:01.554Z,98151.34
2023-03-19T07:11:04.367Z,98158.97
2023-03-19T07:14:06.432Z,98157.94
2023-03-19T07:17:10.316Z,98163.84
2023-03-19T07:20:14.642Z,98164.56
2023-03-19T07:23:16.249Z,98169.59
2023-03-19T07:26:18.507Z,98173.03
2023-03-19T07:29:20.619Z,98171.13
2023-03-19T07:32:23.489Z,98175.53
2023-03-19T07:35:26.699Z,98178.06
2023-03-19T07:38:28.800Z,98179.63
2023-03-19T07:41:30.482Z,98178.50
2023-03-19T07:44:32.220Z,98171.38
2023-03-19T07:47:34.053Z,98177.56
2023-03-19T07:50:37.274Z,98181.03
2023-03-19T07:53:38.984Z,98180.19
2023-03-19T07:56:40.921Z,98169.75
2023-03-19T07:59:42.600Z,98168.63
2023-03-19T08:02:44.400Z,98160.56
2023-03-19T08:05:50.035Z,98173.75
2023-03-19T08:08:51.767Z,98171.78
2023-03-19T08:11:53.387Z,98176.00
2023-03-19T08:14:55.373Z,98171.69
2023-03-19T08:18:00.525Z,98174.28
2023-03-19T08:21:03.962Z,98179.69
2023-03-19T08:24:06.282Z,98174.91
2023-03-19T08:27:08.263Z,98186.19
2023-03-19T08:30:10.764Z,98177.53
2023-03-19T08:33:12.373Z,98180.69
2023-03-19T08:36:15.913Z,98191.06
2023-03-19T08:39:17.513Z,98193.38
2023-03-19T08:42:19.506Z,98180.69
2023-03-19T08:45:21.376Z,98180.25
2023-03-19T08:48:23.373Z,98194.91
2023-03-19T08:51:28.361Z,98194.41
2023-03-19T08:54:30.261Z,98198.19
2023-03-19T08:57:32.285Z,98200.88
2023-03-19T09:00:34.021Z,98202.16
2023-03-19T09:03:36.658Z,98195.63
2023-03-19T09:06:39.769Z,98201.75
2023-03-19T09:09:42.335Z,98197.53
2023-03-19T09:12:43.907Z,98194.06
2023-03-19T09:15:45.662Z,98197.53
2023-03-19T09:18:47.219Z,98194.94
2023-03-19T09:21:50.706Z,98191.25
2023-03-19T09:24:52.267Z,98203.53
2023-03-19T09:27:54.065Z,98202.44
2023-03-19T09:30:56.362Z,98200.78
2023-03-19T09:33:58.105Z,98206.16
2023-03-19T09:37:01.175Z,98206.78
2023-03-19T09:40:04.932Z,98204.34
2023-03-19T09:43:17.800Z,98206.50
2023-03-19T09:46:22.879Z,98211.66
2023-03-19T09:49:26.962Z,98214.56
2023-03-19T09:52:35.306Z,98214.03
2023-03-19T09:55:40.646Z,98218.72
2023-03-19T09:58:44.572Z,98217.66
2023-03-19T10:01:50.251Z,98216.81
2023-03-19T10:05:01.039Z,98219.38
2023-03-19T10:08:18.044Z,98228.28
2023-03-19T10:14:57.125Z,98222.66
2023-03-19T10:18:01.212Z,98228.78
2023-03-19T10:21:06.234Z,98230.25
2023-03-19T10:24:12.488Z,98226.50
2023-03-19T10:27:15.070Z,98233.00
2023-03-19T10:30:17.167Z,98229.00
2023-03-19T10:33:23.323Z,98224.19
2023-03-19T10:43:15.512Z,98238.34
2023-03-19T10:46:17.598Z,98234.34
2023-03-19T10:49:22.611Z,98226.31
2023-03-19T10:52:27.492Z,98234.75
2023-03-19T10:55:30.536Z,98241.63
2023-03-19T10:58:34.530Z,98228.88
2023-03-19T11:01:38.433Z,98232.59
2023-03-19T11:04:40.227Z,98233.94
2023-03-19T11:07:42.064Z,98233.94
2023-03-19T11:14:16.022Z,98246.47
2023-03-19T11:17:20.404Z,98248.66
2023-03-19T11:20:23.774Z,98246.16
2023-03-19T11:23:27.642Z,98251.56
2023-03-19T11:26:29.536Z,98249.13
2023-03-19T11:29:34.374Z,98244.06
2023-03-19T11:32:49.905Z,98242.88
2023-03-19T11:35:57.265Z,98239.91
2023-03-19T11:39:11.259Z,98240.91
2023-03-19T11:42:40.820Z,98239.31
2023-03-19T11:45:49.482Z,98239.94
2023-03-19T11:49:15.687Z,98242.78
2023-03-19T11:52:23.259Z,98244.19
2023-03-19T11:55:28.313Z,98224.66
2023-03-19T11:58:45.282Z,98240.91
2023-03-19T12:02:09.440Z,98236.47
2023-03-19T12:05:24.544Z,98238.84
2023-03-19T12:08:31.477Z,98240.84
2023-03-19T12:11:36.975Z,98234.06
2023-03-19T12:14:47.589Z,98231.81
2023-03-19T12:17:59.603Z,98237.19
2023-03-19T12:21:07.999Z,98235.16
2023-03-19T12:24:14.686Z,98229.78
2023-03-19T12:27:22.180Z,98234.06
2023-03-19T12:30:30.705Z,98241.28
2023-03-19T12:33:41.211Z,98234.72
2023-03-19T12:36:49.686Z,98222.94
2023-03-19T12:39:55.836Z,98240.06
2023-03-19T12:42:58.801Z,98232.16
2023-03-19T12:46:03.317Z,98235.19
2023-03-19T12:49:11.096Z,98228.53
2023-03-19T12:52:18.017Z,98228.19
2023-03-19T12:55:21.161Z,98219.81
2023-03-19T12:58:28.346Z,98222.56
2023-03-19T13:01:33.351Z,98222.66
2023-03-19T13:04:40.021Z,98218.16
2023-03-19T13:07:48.903Z,98216.44
2023-03-19T13:10:51.270Z,98223.16
2023-03-19T13:13:57.295Z,98218.34
2023-03-19T13:17:03.214Z,98226.97
2023-03-19T13:20:15.002Z,98224.16
2023-03-19T13:23:21.975Z,98218.97
2023-03-19T13:26:23.852Z,98223.47
2023-03-19T13:29:26.376Z,98219.19
2023-03-19T13:32:31.226Z,98217.03
2023-03-19T13:35:41.687Z,98211.03
2023-03-19T13:55:32.760Z,98217.59
2023-03-19T13:58:52.745Z,98202.63
2023-03-19T14:01:54.619Z,98203.56
2023-03-19T14:04:58.632Z,98200.88
2023-03-19T14:08:01.091Z,98204.47
2023-03-19T14:11:05.911Z,98205.25
2023-03-19T14:14:14.770Z,98201.31
2023-03-19T14:17:19.571Z,98204.44
2023-03-19T14:20:28.381Z,98208.69
2023-03-19T14:23:42.745Z,98215.09
2023-03-19T14:30:02.362Z,98212.50
2023-03-19T14:33:07.124Z,98212.75
2023-03-19T14:36:12.721Z,98204.16
2023-03-19T14:39:19.282Z,98204.38
2023-03-19T14:42:27.105Z,98212.44
2023-03-19T14:45:42.041Z,98208.25
2023-03-19T14:48:56.679Z,98205.25
2023-03-19T14:52:01.546Z,98200.06
2023-03-19T14:55:08.423Z,98203.56
2023-03-19T14:58:10.769Z,98207.09
2023-03-19T15:01:14.372Z,98207.44
2023-03-19T15:04:17.284Z,98196.09
2023-03-19T15:07:26.544Z,98200.13
2023-03-19T15:10:30.114Z,98208.41
2023-03-19T15:13:53.643Z,98214.13
2023-03-19T15:23:57.688Z,98213.47
2023-03-19T15:26:59.638Z,98210.22
2023-03-19T15:30:12.651Z,98213.31
2023-03-19T15:33:35.068Z,98214.88
2023-03-19T15:36:40.804Z,98218.81
2023-03-19T15:39:45.308Z,98218.72
2023-03-19T15:42:47.725Z,98223.50
2023-03-19T15:45:50.953Z,98221.97
2023-03-19T15:48:56.956Z,98226.88
2023-03-19T15:52:02.773Z,98233.38
2023-03-19T15:55:07.320Z,98231.09
2023-03-19T15:58:10.423Z,98230.25
2023-03-19T16:01:12.854Z,98243.34
2023-03-19T16:04:16.650Z,98241.44
2023-03-19T16:07:23.958Z,98238.38
2023-03-19T16:10:38.636Z,98249.25
2023-03-19T16:13:41.103Z,98253.09
2023-03-19T16:16:45.573Z,98256.16
2023-03-19T16:19:52.465Z,98259.56
2023-03-19T16:22:55.617Z,98267.22
2023-03-19T16:26:03.369Z,98273.69
2023-03-19T16:29:18.507Z,98272.59
2023-03-19T16:32:21.516Z,98270.19
2023-03-19T16:35:27.034Z,98270.47
2023-03-19T16:38:41.020Z,98280.50
2023-03-19T16:41:44.440Z,98282.41
2023-03-19T16:44:47.628Z,98283.69
2023-03-19T16:47:50.308Z,98276.81
2023-03-19T16:50:52.257Z,98283.88
2023-03-19T16:53:54.038Z,98286.75
2023-03-19T16:56:57.567Z,98290.44
2023-03-19T16:59:59.303Z,98292.59
2023-03-19T17:03:01.212Z,98303.72
2023-03-19T17:06:05.868Z,98305.81
2023-03-19T17:09:07.548Z,98298.03
2023-03-19T17:12:14.285Z,98298.38
2023-03-19T17:15:20.066Z,98298.53
2023-03-19T17:18:23.197Z,98298.81
2023-03-19T17:21:26.241Z,98305.97
2023-03-19T17:24:31.285Z,98308.88
2023-03-19T17:27:35.025Z,98322.31
2023-03-19T17:30:38.207Z,98322.41
2023-03-19T17:33:40.296Z,98324.31
2023-03-19T17:36:42.650Z,98327.84
2023-03-19T17:39:45.750Z,98331.28
2023-03-19T17:42:49.099Z,98330.25
2023-03-19T17:45:50.846Z,98342.94
2023-03-19T17:48:53.100Z,98342.47
2023-03-19T17:51:55.240Z,98347.31
2023-03-19T17:54:56.903Z,98354.63
2023-03-19T17:58:00.347Z,98350.41
2023-03-19T18:01:02.155Z,98345.41
2023-03-19T18:04:04.479Z,98352.78
2023-03-19T18:07:09.448Z,98360.19
2023-03-19T18:10:18.459Z,98358.78
2023-03-19T18:13:21.455Z,98353.63
2023-03-19T18:16:24.584Z,98361.78
2023-03-19T18:19:29.154Z,98366.34
2023-03-19T18:22:31.277Z,98369.00
2023-03-19T18:25:35.670Z,98369.88
2023-03-19T18:28:39.286Z,98367.03
2023-03-19T18:31:42.060Z,98366.97
2023-03-19T18:34:44.042Z,98372.31
2023-03-19T18:37:47.282Z,98369.69
2023-03-19T18:40:49.227Z,98374.16
2023-03-19T18:43:52.135Z,98378.66
2023-03-19T18:46:54.208Z,98373.25
2023-03-19T18:49:57.655Z,98383.13
2023-03-19T18:52:59.329Z,98384.84
2023-03-19T18:56:04.304Z,98386.59
2023-03-19T18:59:11.315Z,98393.66
2023-03-19T19:02:20.291Z,98392.72
2023-03-19T19:05:23.756Z,98399.16
2023-03-19T19:08:27.008Z,98398.47
2023-03-19T19:11:28.706Z,98405.69
2023-03-19T19:14:32.152Z,98413.63
2023-03-19T19:17:35.057Z,98417.41
2023-03-19T19:20:36.893Z,98414.66
2023-03-19T19:23:38.672Z,98426.09
2023-03-19T19:26:41.643Z,98422.41
2023-03-19T19:29:45.774Z,98426.03
2023-03-19T19:32:47.789Z,98433.09
2023-03-19T19:35:49.569Z,98438.34
2023-03-19T19:38:52.763Z,98436.69
2023-03-19T19:41:54.636Z,98435.94
2023-03-19T19:45:01.465Z,98441.97
2023-03-19T19:48:04.023Z,98447.22
2023-03-19T19:51:08.458Z,98454.38
2023-03-19T19:54:12.006Z,98452.72
2023-03-19T19:57:18.426Z,98462.72
2023-03-19T20:00:22.906Z,98457.38
2023-03-19T20:03:25.361Z,98469.00
2023-03-19T20:06:31.379Z,98470.84
2023-03-19T20:09:33.418Z,98470.84
2023-03-19T20:12:35.001Z,98466.53
2023-03-19T20:15:38.516Z,98464.13
2023-03-19T20:18:44.560Z,98465.13
2023-03-19T20:21:47.254Z,98471.38
2023-03-19T20:24:51.359Z,98466.13
2023-03-19T20:27:54.892Z,98468.03
2023-03-19T20:30:58.779Z,98468.09
2023-03-19T20:34:00.548Z,98468.19
2023-03-19T20:37:02.071Z,98466.53
2023-03-19T20:40:03.771Z,98469.25
2023-03-19T20:43:10.029Z,98475.69
2023-03-19T20:46:13.783Z,98475.00
2023-03-19T20:49:15.303Z,98480.53
2023-03-19T20:52:17.171Z,98476.94
2023-03-19T20:55:19.822Z,98483.28
2023-03-19T20:58:23.746Z,98484.16
2023-03-19T21:01:27.273Z,98483.44
2023-03-19T21:04:28.974Z,98491.59
2023-03-19T21:07:33.855Z,98490.88
2023-03-19T21:10:37.563Z,98490.94
2023-03-19T21:13:39.118Z,98493.78
2023-03-19T21:16:42.014Z,98494.78
2023-03-19T21:19:43.607Z,98501.00
2023-03-19T21:22:46.681Z,98493.03
2023-03-19T21:25:49.705Z,98498.38
2023-03-19T21:28:53.187Z,98501.03
2023-03-19T21:31:56.827Z,98498.50
2023-03-19T21:34:58.374Z,98501.09
2023-03-19T21:37:59.938Z,98497.56
2023-03-19T21:41:03.497Z,98507.44
2023-03-19T21:44:07.520Z,98508.47
2023-03-19T21:47:13.118Z,98503.13
2023-03-19T21:50:16.960Z,98505.94
2023-03-19T21:53:18.924Z,98502.50
2023-03-19T21:56:22.522Z,98501.69
2023-03-19T21:59:27.178Z,98499.94
2023-03-19T22:02:42.146Z,98503.47
2023-03-19T22:05:43.810Z,98493.75
2023-03-19T22:08:45.665Z,98498.22
2023-03-19T22:11:47.222Z,98495.72
2023-03-19T22:14:48.864Z,98497.50
2023-03-19T22:17:52.024Z,98498.44
2023-03-19T22:20:54.148Z,98494.91
2023-03-19T22:23:56.839Z,98495.78
2023-03-19T22:26:58.646Z,98498.38
2023-03-19T22:30:09.015Z,98501.97
2023-03-19T22:33:14.683Z,98504.56
2023-03-19T22:36:16.886Z,98492.34
2023-03-19T22:39:18.676Z,98501.19
2023-03-19T22:42:21.118Z,98495.03
2023-03-19T22:45:26.115Z,98496.78
2023-03-19T22:48:29.797Z,98495.84
2023-03-19T22:51:32.205Z,98505.72
2023-03-19T22:54:33.948Z,98497.88
2023-03-19T22:57:36.212Z,98508.59
2023-03-19T23:00:41.207Z,98504.91
2023-03-19T23:03:45.029Z,98508.38
2023-03-19T23:06:46.751Z,98511.97
2023-03-19T23:09:48.410Z,98503.28
2023-03-19T23:12:50.011Z,98501.53
2023-03-19T23:15:54.865Z,98498.97
2023-03-19T23:18:57.801Z,98506.16
2023-03-19T23:22:00.081Z,98513.34
2023-03-19T23:25:02.302Z,98514.44
2023-03-19T23:28:04.595Z,98520.78
2023-03-19T23:31:10.061Z,98520.97
2023-03-19T23:34:13.641Z,98517.66
2023-03-19T23:37:15.765Z,98532.03
2023-03-19T23:40:18.024Z,98532.50
2023-03-19T23:43:21.905Z,98536.13
2023-03-19T23:46:23.577Z,98544.50
2023-03-19T23:49:28.810Z,98543.81
2023-03-19T23:52:30.742Z,98538.47
2023-03-19T23:55:33.543Z,98532.44
2023-03-19T23:58:40.089Z,98547.69
